Terminal Aerodrome Forecast
Issued by NWS

Home | Current Version | Previous Version | Text Only | Print | Product List | Glossary On
Versions: 1 2 3 4 5 6 7 8 9 10 11 12 13 14 15 16 17 18 19 20 21 22
000
FTUS41 KOKX 282000 AAA
TAFSWF
TAF AMD
KSWF 282030Z 2821/2924 36008KT P6SM FEW050 FEW150
     FM290300 VRB02KT P6SM FEW150
     FM291900 16008KT P6SM BKN100
      AMD NOT SKED=

USA.gov is the U.S. government's official web portal to all federal, state and local government web resources and services.